sensor_id;sensor_type;location;lat;lon;timestamp;pressure;altitude;pressure_sealevel;temperature;humidity
40171;BME280;37650;52.790;18.268;2022-12-07T07:20:50;99736.70;;;0.12;100.00
40171;BME280;37650;52.790;18.268;2022-12-07T07:24:12;99732.88;;;0.17;100.00
40171;BME280;37650;52.790;18.268;2022-12-07T07:27:33;99731.10;;;0.26;100.00
40171;BME280;37650;52.790;18.268;2022-12-07T07:30:55;99733.47;;;0.34;100.00
40171;BME280;37650;52.790;18.268;2022-12-07T07:34:16;99743.77;;;0.44;100.00
40171;BME280;37650;52.790;18.268;2022-12-07T07:37:38;99747.67;;;0.52;100.00
40171;BME280;37650;52.790;18.268;2022-12-07T07:40:59;99747.09;;;0.62;100.00
40171;BME280;37650;52.790;18.268;2022-12-07T07:44:21;99748.40;;;0.72;100.00
40171;BME280;37650;52.790;18.268;2022-12-07T07:47:42;99744.02;;;0.79;100.00
40171;BME280;37650;52.790;18.268;2022-12-07T07:51:07;99740.85;;;0.88;100.00
40171;BME280;37650;52.790;18.268;2022-12-07T07:54:29;99739.38;;;0.99;100.00
40171;BME280;37650;52.790;18.268;2022-12-07T07:57:50;99739.96;;;1.10;100.00
40171;BME280;37650;52.790;18.268;2022-12-07T08:01:11;99736.79;;;1.17;100.00
40171;BME280;37650;52.790;18.268;2022-12-07T08:04:35;99735.20;;;1.21;100.00
40171;BME280;37650;52.790;18.268;2022-12-07T08:07:57;99729.52;;;1.19;100.00
40171;BME280;37650;52.790;18.268;2022-12-07T08:11:18;99728.08;;;1.25;100.00
40171;BME280;37650;52.790;18.268;2022-12-07T08:14:39;99729.27;;;1.28;100.00
40171;BME280;37650;52.790;18.268;2022-12-07T08:18:02;99730.23;;;1.34;100.00
40171;BME280;37650;52.790;18.268;2022-12-07T08:21:22;99724.98;;;1.42;100.00
40171;BME280;37650;52.790;18.268;2022-12-07T08:24:44;99719.04;;;1.48;100.00
40171;BME280;37650;52.790;18.268;2022-12-07T08:28:05;99719.13;;;1.55;100.00
40171;BME280;37650;52.790;18.268;2022-12-07T08:31:27;99722.67;;;1.62;100.00
40171;BME280;37650;52.790;18.268;2022-12-07T08:34:49;99721.06;;;1.67;100.00
40171;BME280;37650;52.790;18.268;2022-12-07T08:38:10;99724.39;;;1.79;100.00
40171;BME280;37650;52.790;18.268;2022-12-07T08:41:32;99724.95;;;1.89;100.00
40171;BME280;37650;52.790;18.268;2022-12-07T08:44:54;99718.55;;;2.02;100.00
40171;BME280;37650;52.790;18.268;2022-12-07T08:48:15;99717.05;;;2.13;100.00
40171;BME280;37650;52.790;18.268;2022-12-07T08:51:39;99716.55;;;2.10;100.00
40171;BME280;37650;52.790;18.268;2022-12-07T08:55:02;99717.83;;;2.04;100.00
40171;BME280;37650;52.790;18.268;2022-12-07T08:58:24;99719.20;;;2.06;100.00
40171;BME280;37650;52.790;18.268;2022-12-07T09:01:45;99714.52;;;2.07;100.00
40171;BME280;37650;52.790;18.268;2022-12-07T09:05:07;99707.98;;;2.04;100.00
40171;BME280;37650;52.790;18.268;2022-12-07T09:08:42;99706.13;;;2.00;100.00
40171;BME280;37650;52.790;18.268;2022-12-07T09:12:05;99701.14;;;1.98;100.00
40171;BME280;37650;52.790;18.268;2022-12-07T09:15:30;99699.09;;;1.96;100.00
40171;BME280;37650;52.790;18.268;2022-12-07T09:18:52;99694.93;;;1.97;100.00
40171;BME280;37650;52.790;18.268;2022-12-07T09:22:13;99688.66;;;1.99;100.00
40171;BME280;37650;52.790;18.268;2022-12-07T09:25:34;99689.73;;;1.98;100.00
40171;BME280;37650;52.790;18.268;2022-12-07T09:28:56;99683.30;;;1.99;100.00
40171;BME280;37650;52.790;18.268;2022-12-07T09:32:17;99674.77;;;2.03;100.00
40171;BME280;37650;52.790;18.268;2022-12-07T09:35:44;99674.78;;;2.03;100.00
40171;BME280;37650;52.790;18.268;2022-12-07T09:39:06;99673.65;;;1.97;100.00
40171;BME280;37650;52.790;18.268;2022-12-07T09:45:51;99667.20;;;2.00;100.00
40171;BME280;37650;52.790;18.268;2022-12-07T09:49:21;99661.14;;;2.00;100.00
40171;BME280;37650;52.790;18.268;2022-12-07T09:52:45;99656.30;;;2.00;100.00
40171;BME280;37650;52.790;18.268;2022-12-07T09:56:12;99652.91;;;1.95;100.00
40171;BME280;37650;52.790;18.268;2022-12-07T09:59:34;99649.55;;;1.89;100.00
40171;BME280;37650;52.790;18.268;2022-12-07T10:02:58;99644.20;;;1.87;100.00
40171;BME280;37650;52.790;18.268;2022-12-07T10:06:19;99643.02;;;1.86;100.00
40171;BME280;37650;52.790;18.268;2022-12-07T10:09:41;99640.27;;;1.86;100.00
40171;BME280;37650;52.790;18.268;2022-12-07T10:13:15;99635.85;;;1.91;100.00
40171;BME280;37650;52.790;18.268;2022-12-07T10:16:41;99634.36;;;1.98;100.00
40171;BME280;37650;52.790;18.268;2022-12-07T10:23:33;99630.98;;;2.04;100.00
40171;BME280;37650;52.790;18.268;2022-12-07T10:26:55;99620.67;;;2.00;100.00
40171;BME280;37650;52.790;18.268;2022-12-07T10:30:16;99623.10;;;1.98;100.00
40171;BME280;37650;52.790;18.268;2022-12-07T10:33:48;99618.97;;;1.98;100.00
40171;BME280;37650;52.790;18.268;2022-12-07T10:40:45;99608.05;;;1.98;100.00
40171;BME280;37650;52.790;18.268;2022-12-07T10:44:21;99602.31;;;2.01;100.00
40171;BME280;37650;52.790;18.268;2022-12-07T11:02:24;99583.27;;;2.03;100.00
40171;BME280;37650;52.790;18.268;2022-12-07T11:06:14;99577.83;;;1.97;100.00
40171;BME280;37650;52.790;18.268;2022-12-07T11:10:07;99572.73;;;1.92;100.00
40171;BME280;37650;52.790;18.268;2022-12-07T11:17:35;99556.93;;;1.94;100.00
40171;BME280;37650;52.790;18.268;2022-12-07T11:21:21;99549.57;;;1.89;100.00
40171;BME280;37650;52.790;18.268;2022-12-07T11:32:20;99540.33;;;1.84;100.00
40171;BME280;37650;52.790;18.268;2022-12-07T11:36:02;99539.89;;;1.77;100.00
40171;BME280;37650;52.790;18.268;2022-12-07T11:39:33;99541.32;;;1.75;100.00
40171;BME280;37650;52.790;18.268;2022-12-07T11:46:50;99535.79;;;1.75;100.00
40171;BME280;37650;52.790;18.268;2022-12-07T11:53:52;99529.79;;;1.71;100.00
40171;BME280;37650;52.790;18.268;2022-12-07T11:57:23;99524.45;;;1.70;100.00
40171;BME280;37650;52.790;18.268;2022-12-07T12:00:49;99521.36;;;1.68;100.00
40171;BME280;37650;52.790;18.268;2022-12-07T12:04:22;99520.23;;;1.63;100.00
40171;BME280;37650;52.790;18.268;2022-12-07T12:07:56;99518.20;;;1.60;100.00
40171;BME280;37650;52.790;18.268;2022-12-07T12:22:49;99514.27;;;1.57;100.00
40171;BME280;37650;52.790;18.268;2022-12-07T12:26:24;99509.95;;;1.57;100.00
40171;BME280;37650;52.790;18.268;2022-12-07T12:29:53;99511.54;;;1.54;100.00
40171;BME280;37650;52.790;18.268;2022-12-07T12:33:29;99505.58;;;1.48;100.00
40171;BME280;37650;52.790;18.268;2022-12-07T12:36:51;99504.54;;;1.37;100.00
40171;BME280;37650;52.790;18.268;2022-12-07T12:43:43;99498.28;;;1.26;100.00
40171;BME280;37650;52.790;18.268;2022-12-07T12:47:43;99490.38;;;1.23;100.00
40171;BME280;37650;52.790;18.268;2022-12-07T12:51:35;99486.02;;;1.25;100.00
40171;BME280;37650;52.790;18.268;2022-12-07T12:58:41;99482.72;;;1.28;100.00
40171;BME280;37650;52.790;18.268;2022-12-07T13:05:38;99473.17;;;1.30;100.00
40171;BME280;37650;52.790;18.268;2022-12-07T13:09:00;99470.24;;;1.29;100.00
40171;BME280;37650;52.790;18.268;2022-12-07T13:12:21;99465.48;;;1.24;100.00
40171;BME280;37650;52.790;18.268;2022-12-07T13:23:04;99468.27;;;1.34;100.00
40171;BME280;37650;52.790;18.268;2022-12-07T13:29:51;99462.96;;;1.31;100.00
40171;BME280;37650;52.790;18.268;2022-12-07T13:33:12;99462.09;;;1.32;100.00
40171;BME280;37650;52.790;18.268;2022-12-07T13:36:39;99463.07;;;1.36;100.00
40171;BME280;37650;52.790;18.268;2022-12-07T13:40:17;99468.23;;;1.37;100.00
40171;BME280;37650;52.790;18.268;2022-12-07T13:47:45;99466.56;;;1.33;100.00
40171;BME280;37650;52.790;18.268;2022-12-07T13:51:18;99464.27;;;1.37;100.00
40171;BME280;37650;52.790;18.268;2022-12-07T13:54:48;99468.23;;;1.39;100.00
40171;BME280;37650;52.790;18.268;2022-12-07T13:58:10;99464.23;;;1.39;100.00
40171;BME280;37650;52.790;18.268;2022-12-07T14:01:31;99469.10;;;1.38;100.00
40171;BME280;37650;52.790;18.268;2022-12-07T14:05:15;99471.89;;;1.35;100.00
40171;BME280;37650;52.790;18.268;2022-12-07T14:08:43;99472.55;;;1.37;100.00
40171;BME280;37650;52.790;18.268;2022-12-07T14:12:05;99478.71;;;1.41;100.00
40171;BME280;37650;52.790;18.268;2022-12-07T14:15:29;99477.84;;;1.43;100.00
40171;BME280;37650;52.790;18.268;2022-12-07T14:18:51;99477.57;;;1.49;100.00
40171;BME280;37650;52.790;18.268;2022-12-07T14:25:49;99479.80;;;1.50;100.00
40171;BME280;37650;52.790;18.268;2022-12-07T14:32:53;99477.58;;;1.49;100.00
40171;BME280;37650;52.790;18.268;2022-12-07T14:36:14;99480.11;;;1.51;100.00
40171;BME280;37650;52.790;18.268;2022-12-07T14:39:35;99482.73;;;1.50;100.00
40171;BME280;37650;52.790;18.268;2022-12-07T14:43:09;99476.21;;;1.47;100.00
40171;BME280;37650;52.790;18.268;2022-12-07T14:46:31;99479.15;;;1.47;100.00
40171;BME280;37650;52.790;18.268;2022-12-07T14:49:53;99479.48;;;1.48;100.00
40171;BME280;37650;52.790;18.268;2022-12-07T14:53:16;99482.20;;;1.50;100.00
40171;BME280;37650;52.790;18.268;2022-12-07T14:56:37;99483.81;;;1.47;100.00
40171;BME280;37650;52.790;18.268;2022-12-07T14:59:58;99483.14;;;1.46;100.00
40171;BME280;37650;52.790;18.268;2022-12-07T15:03:19;99485.20;;;1.46;100.00
40171;BME280;37650;52.790;18.268;2022-12-07T15:06:41;99483.11;;;1.48;100.00
40171;BME280;37650;52.790;18.268;2022-12-07T15:10:05;99483.09;;;1.49;100.00
40171;BME280;37650;52.790;18.268;2022-12-07T15:13:27;99486.67;;;1.52;100.00
40171;BME280;37650;52.790;18.268;2022-12-07T15:17:10;99488.45;;;1.49;100.00
40171;BME280;37650;52.790;18.268;2022-12-07T15:20:31;99491.43;;;1.47;100.00
40171;BME280;37650;52.790;18.268;2022-12-07T15:23:53;99486.65;;;1.42;100.00
40171;BME280;37650;52.790;18.268;2022-12-07T15:27:14;99493.23;;;1.41;100.00
40171;BME280;37650;52.790;18.268;2022-12-07T15:30:39;99493.76;;;1.40;100.00
40171;BME280;37650;52.790;18.268;2022-12-07T15:34:02;99493.69;;;1.33;100.00
40171;BME280;37650;52.790;18.268;2022-12-07T15:37:24;99503.98;;;1.27;100.00
40171;BME280;37650;52.790;18.268;2022-12-07T15:40:47;99509.18;;;1.24;100.00
40171;BME280;37650;52.790;18.268;2022-12-07T15:44:13;99506.93;;;1.25;100.00
40171;BME280;37650;52.790;18.268;2022-12-07T15:47:53;99515.73;;;1.26;100.00
40171;BME280;37650;52.790;18.268;2022-12-07T15:51:16;99513.18;;;1.22;100.00
40171;BME280;37650;52.790;18.268;2022-12-07T15:54:37;99519.63;;;1.18;100.00
40171;BME280;37650;52.790;18.268;2022-12-07T15:57:59;99521.73;;;1.16;100.00
40171;BME280;37650;52.790;18.268;2022-12-07T16:01:22;99523.11;;;1.16;100.00
40171;BME280;37650;52.790;18.268;2022-12-07T16:04:43;99524.15;;;1.17;100.00
40171;BME280;37650;52.790;18.268;2022-12-07T16:08:05;99526.05;;;1.16;100.00
40171;BME280;37650;52.790;18.268;2022-12-07T16:11:27;99527.86;;;1.10;100.00
40171;BME280;37650;52.790;18.268;2022-12-07T16:14:48;99526.70;;;1.06;100.00
40171;BME280;37650;52.790;18.268;2022-12-07T16:18:09;99526.20;;;1.05;100.00
40171;BME280;37650;52.790;18.268;2022-12-07T16:21:31;99530.69;;;1.05;100.00
40171;BME280;37650;52.790;18.268;2022-12-07T16:24:52;99528.98;;;1.02;100.00
40171;BME280;37650;52.790;18.268;2022-12-07T16:28:13;99529.20;;;0.99;100.00
40171;BME280;37650;52.790;18.268;2022-12-07T16:31:34;99523.31;;;1.00;100.00
40171;BME280;37650;52.790;18.268;2022-12-07T16:34:55;99524.02;;;1.01;100.00
40171;BME280;37650;52.790;18.268;2022-12-07T16:38:16;99522.10;;;1.01;100.00
40171;BME280;37650;52.790;18.268;2022-12-07T16:41:38;99524.86;;;1.00;100.00
40171;BME280;37650;52.790;18.268;2022-12-07T16:45:00;99522.48;;;0.98;100.00
40171;BME280;37650;52.790;18.268;2022-12-07T16:48:21;99522.49;;;0.97;100.00
40171;BME280;37650;52.790;18.268;2022-12-07T16:51:43;99520.28;;;0.95;100.00
40171;BME280;37650;52.790;18.268;2022-12-07T16:55:04;99525.98;;;0.93;100.00
40171;BME280;37650;52.790;18.268;2022-12-07T16:58:26;99533.25;;;0.92;100.00
40171;BME280;37650;52.790;18.268;2022-12-07T17:01:47;99533.13;;;0.89;100.00
40171;BME280;37650;52.790;18.268;2022-12-07T17:05:09;99532.28;;;0.86;100.00
40171;BME280;37650;52.790;18.268;2022-12-07T17:08:30;99535.92;;;0.84;100.00
40171;BME280;37650;52.790;18.268;2022-12-07T17:11:51;99536.08;;;0.86;100.00
40171;BME280;37650;52.790;18.268;2022-12-07T17:15:13;99540.95;;;0.84;100.00
40171;BME280;37650;52.790;18.268;2022-12-07T17:18:37;99542.70;;;0.81;100.00
40171;BME280;37650;52.790;18.268;2022-12-07T17:21:58;99540.15;;;0.78;100.00
40171;BME280;37650;52.790;18.268;2022-12-07T17:25:20;99536.52;;;0.77;100.00
40171;BME280;37650;52.790;18.268;2022-12-07T17:28:41;99541.90;;;0.74;100.00
40171;BME280;37650;52.790;18.268;2022-12-07T17:32:03;99543.86;;;0.69;100.00
40171;BME280;37650;52.790;18.268;2022-12-07T17:35:24;99544.61;;;0.64;100.00
40171;BME280;37650;52.790;18.268;2022-12-07T17:38:46;99543.09;;;0.60;100.00
40171;BME280;37650;52.790;18.268;2022-12-07T17:42:09;99548.31;;;0.58;100.00
40171;BME280;37650;52.790;18.268;2022-12-07T17:45:50;99548.87;;;0.52;100.00
40171;BME280;37650;52.790;18.268;2022-12-07T17:49:12;99548.06;;;0.47;100.00
40171;BME280;37650;52.790;18.268;2022-12-07T17:52:37;99551.56;;;0.41;100.00
40171;BME280;37650;52.790;18.268;2022-12-07T17:56:17;99545.76;;;0.34;100.00
40171;BME280;37650;52.790;18.268;2022-12-07T17:59:40;99548.75;;;0.28;100.00
40171;BME280;37650;52.790;18.268;2022-12-07T18:03:06;99548.98;;;0.21;100.00
40171;BME280;37650;52.790;18.268;2022-12-07T18:06:29;99559.41;;;0.13;100.00
40171;BME280;37650;52.790;18.268;2022-12-07T18:09:51;99557.89;;;0.07;100.00
40171;BME280;37650;52.790;18.268;2022-12-07T18:13:13;99551.88;;;0.05;100.00
40171;BME280;37650;52.790;18.268;2022-12-07T18:16:54;99550.83;;;0.06;100.00
40171;BME280;37650;52.790;18.268;2022-12-07T18:20:15;99552.39;;;0.05;100.00
40171;BME280;37650;52.790;18.268;2022-12-07T18:23:37;99554.48;;;0.03;100.00
40171;BME280;37650;52.790;18.268;2022-12-07T18:26:59;99556.03;;;0.03;100.00
40171;BME280;37650;52.790;18.268;2022-12-07T18:30:21;99554.10;;;0.06;100.00
40171;BME280;37650;52.790;18.268;2022-12-07T18:33:44;99551.52;;;0.05;100.00
40171;BME280;37650;52.790;18.268;2022-12-07T18:37:07;99553.82;;;-0.02;100.00
40171;BME280;37650;52.790;18.268;2022-12-07T18:40:29;99553.02;;;-0.08;100.00
40171;BME280;37650;52.790;18.268;2022-12-07T18:43:52;99552.70;;;-0.13;100.00
40171;BME280;37650;52.790;18.268;2022-12-07T18:47:14;99547.91;;;-0.18;100.00
40171;BME280;37650;52.790;18.268;2022-12-07T18:50:42;99547.95;;;-0.24;100.00
40171;BME280;37650;52.790;18.268;2022-12-07T18:54:04;99546.77;;;-0.29;100.00
40171;BME280;37650;52.790;18.268;2022-12-07T18:57:26;99544.20;;;-0.32;100.00
40171;BME280;37650;52.790;18.268;2022-12-07T19:00:49;99545.95;;;-0.34;100.00
40171;BME280;37650;52.790;18.268;2022-12-07T19:04:12;99554.74;;;-0.37;100.00
40171;BME280;37650;52.790;18.268;2022-12-07T19:07:36;99555.98;;;-0.41;100.00
40171;BME280;37650;52.790;18.268;2022-12-07T19:10:57;99555.83;;;-0.44;100.00
40171;BME280;37650;52.790;18.268;2022-12-07T19:14:39;99554.63;;;-0.47;100.00
40171;BME280;37650;52.790;18.268;2022-12-07T19:18:02;99560.15;;;-0.47;100.00
40171;BME280;37650;52.790;18.268;2022-12-07T19:21:24;99564.48;;;-0.51;100.00
40171;BME280;37650;52.790;18.268;2022-12-07T19:24:51;99562.96;;;-0.55;100.00
40171;BME280;37650;52.790;18.268;2022-12-07T19:28:13;99562.80;;;-0.56;100.00
40171;BME280;37650;52.790;18.268;2022-12-07T19:31:35;99563.65;;;-0.57;100.00
40171;BME280;37650;52.790;18.268;2022-12-07T19:35:00;99566.23;;;-0.57;100.00
40171;BME280;37650;52.790;18.268;2022-12-07T19:38:29;99566.77;;;-0.59;100.00
40171;BME280;37650;52.790;18.268;2022-12-07T19:41:51;99567.48;;;-0.61;100.00
40171;BME280;37650;52.790;18.268;2022-12-07T19:45:14;99571.40;;;-0.59;100.00
40171;BME280;37650;52.790;18.268;2022-12-07T19:48:36;99564.68;;;-0.54;100.00
40171;BME280;37650;52.790;18.268;2022-12-07T19:52:04;99569.47;;;-0.49;100.00
40171;BME280;37650;52.790;18.268;2022-12-07T19:55:27;99570.48;;;-0.46;100.00
40171;BME280;37650;52.790;18.268;2022-12-07T19:58:50;99566.17;;;-0.46;100.00
40171;BME280;37650;52.790;18.268;2022-12-07T20:02:14;99570.13;;;-0.44;100.00
40171;BME280;37650;52.790;18.268;2022-12-07T20:05:37;99575.43;;;-0.37;100.00
40171;BME280;37650;52.790;18.268;2022-12-07T20:09:00;99570.58;;;-0.32;100.00
40171;BME280;37650;52.790;18.268;2022-12-07T20:12:26;99571.93;;;-0.27;100.00
40171;BME280;37650;52.790;18.268;2022-12-07T20:16:19;99574.85;;;-0.26;100.00
40171;BME280;37650;52.790;18.268;2022-12-07T20:19:42;99576.39;;;-0.25;100.00
40171;BME280;37650;52.790;18.268;2022-12-07T20:23:04;99579.66;;;-0.24;100.00
40171;BME280;37650;52.790;18.268;2022-12-07T20:26:28;99580.52;;;-0.22;100.00
40171;BME280;37650;52.790;18.268;2022-12-07T20:29:51;99578.11;;;-0.25;100.00
40171;BME280;37650;52.790;18.268;2022-12-07T20:33:15;99584.16;;;-0.26;100.00
40171;BME280;37650;52.790;18.268;2022-12-07T20:36:40;99582.77;;;-0.26;100.00
40171;BME280;37650;52.790;18.268;2022-12-07T20:40:06;99579.51;;;-0.26;100.00
40171;BME280;37650;52.790;18.268;2022-12-07T20:43:29;99582.96;;;-0.28;100.00
40171;BME280;37650;52.790;18.268;2022-12-07T20:46:51;99578.83;;;-0.30;100.00
40171;BME280;37650;52.790;18.268;2022-12-07T20:50:14;99576.77;;;-0.29;100.00
40171;BME280;37650;52.790;18.268;2022-12-07T20:53:36;99579.85;;;-0.27;100.00
40171;BME280;37650;52.790;18.268;2022-12-07T20:56:58;99585.36;;;-0.24;100.00
40171;BME280;37650;52.790;18.268;2022-12-07T21:00:20;99584.84;;;-0.25;100.00
40171;BME280;37650;52.790;18.268;2022-12-07T21:03:43;99587.45;;;-0.29;100.00
40171;BME280;37650;52.790;18.268;2022-12-07T21:07:06;99592.10;;;-0.27;100.00
40171;BME280;37650;52.790;18.268;2022-12-07T21:10:28;99595.70;;;-0.26;100.00
40171;BME280;37650;52.790;18.268;2022-12-07T21:13:50;99602.05;;;-0.22;100.00
40171;BME280;37650;52.790;18.268;2022-12-07T21:17:12;99609.10;;;-0.17;100.00
40171;BME280;37650;52.790;18.268;2022-12-07T21:20:33;99612.86;;;-0.15;100.00
40171;BME280;37650;52.790;18.268;2022-12-07T21:23:54;99614.07;;;-0.11;100.00
40171;BME280;37650;52.790;18.268;2022-12-07T21:27:17;99620.77;;;-0.09;100.00
40171;BME280;37650;52.790;18.268;2022-12-07T21:30:38;99623.35;;;-0.08;100.00
40171;BME280;37650;52.790;18.268;2022-12-07T21:34:01;99621.45;;;-0.09;100.00
40171;BME280;37650;52.790;18.268;2022-12-07T21:37:22;99625.94;;;-0.08;100.00
40171;BME280;37650;52.790;18.268;2022-12-07T21:40:44;99623.36;;;-0.10;100.00
40171;BME280;37650;52.790;18.268;2022-12-07T21:44:07;99627.52;;;-0.13;100.00
40171;BME280;37650;52.790;18.268;2022-12-07T21:47:31;99627.87;;;-0.15;100.00
40171;BME280;37650;52.790;18.268;2022-12-07T21:50:52;99627.17;;;-0.14;100.00
40171;BME280;37650;52.790;18.268;2022-12-07T21:54:14;99625.80;;;-0.13;100.00
40171;BME280;37650;52.790;18.268;2022-12-07T21:57:35;99629.41;;;-0.14;100.00
40171;BME280;37650;52.790;18.268;2022-12-07T22:00:58;99635.62;;;-0.13;100.00
40171;BME280;37650;52.790;18.268;2022-12-07T22:04:22;99634.23;;;-0.12;100.00
40171;BME280;37650;52.790;18.268;2022-12-07T22:07:44;99643.70;;;-0.09;100.00
40171;BME280;37650;52.790;18.268;2022-12-07T22:11:05;99649.39;;;-0.08;100.00
40171;BME280;37650;52.790;18.268;2022-12-07T22:14:27;99645.92;;;-0.07;100.00
40171;BME280;37650;52.790;18.268;2022-12-07T22:18:07;99647.48;;;-0.07;100.00
40171;BME280;37650;52.790;18.268;2022-12-07T22:21:29;99642.80;;;-0.04;100.00
40171;BME280;37650;52.790;18.268;2022-12-07T22:24:50;99645.21;;;-0.03;100.00
40171;BME280;37650;52.790;18.268;2022-12-07T22:28:12;99645.39;;;-0.05;100.00
40171;BME280;37650;52.790;18.268;2022-12-07T22:31:33;99640.21;;;-0.03;100.00
40171;BME280;37650;52.790;18.268;2022-12-07T22:34:55;99640.56;;;-0.02;100.00
40171;BME280;37650;52.790;18.268;2022-12-07T22:38:16;99636.77;;;-0.01;100.00
40171;BME280;37650;52.790;18.268;2022-12-07T22:41:38;99641.24;;;-0.02;100.00
40171;BME280;37650;52.790;18.268;2022-12-07T22:44:59;99638.48;;;-0.03;100.00
40171;BME280;37650;52.790;18.268;2022-12-07T22:48:21;99638.14;;;-0.02;100.00
40171;BME280;37650;52.790;18.268;2022-12-07T22:51:43;99637.08;;;0.02;100.00
40171;BME280;37650;52.790;18.268;2022-12-07T22:55:05;99639.32;;;0.02;100.00
40171;BME280;37650;52.790;18.268;2022-12-07T22:58:26;99638.98;;;0.00;100.00
40171;BME280;37650;52.790;18.268;2022-12-07T23:01:48;99638.66;;;-0.02;100.00
40171;BME280;37650;52.790;18.268;2022-12-07T23:05:10;99637.80;;;-0.02;100.00
40171;BME280;37650;52.790;18.268;2022-12-07T23:08:31;99633.31;;;-0.01;100.00
40171;BME280;37650;52.790;18.268;2022-12-07T23:11:53;99634.52;;;-0.01;100.00
40171;BME280;37650;52.790;18.268;2022-12-07T23:15:33;99637.45;;;-0.03;100.00
40171;BME280;37650;52.790;18.268;2022-12-07T23:18:55;99639.35;;;-0.04;100.00
40171;BME280;37650;52.790;18.268;2022-12-07T23:22:16;99641.42;;;-0.02;100.00
40171;BME280;37650;52.790;18.268;2022-12-07T23:25:37;99645.20;;;-0.01;100.00
40171;BME280;37650;52.790;18.268;2022-12-07T23:28:59;99643.82;;;-0.01;100.00
40171;BME280;37650;52.790;18.268;2022-12-07T23:32:20;99644.70;;;-0.01;100.00
40171;BME280;37650;52.790;18.268;2022-12-07T23:35:42;99646.23;;;0.00;100.00
40171;BME280;37650;52.790;18.268;2022-12-07T23:39:04;99647.94;;;0.02;100.00
40171;BME280;37650;52.790;18.268;2022-12-07T23:42:25;99647.77;;;0.01;100.00
40171;BME280;37650;52.790;18.268;2022-12-07T23:45:46;99645.55;;;-0.01;100.00
40171;BME280;37650;52.790;18.268;2022-12-07T23:49:09;99648.82;;;0.00;100.00
40171;BME280;37650;52.790;18.268;2022-12-07T23:52:32;99650.35;;;0.03;100.00
40171;BME280;37650;52.790;18.268;2022-12-07T23:55:53;99652.42;;;0.02;100.00
40171;BME280;37650;52.790;18.268;2022-12-07T23:59:14;99656.73;;;0.02;100.00
